createdAt,value
2023-05-02T00:03:59.431Z,98933.97
2023-05-02T00:09:01.347Z,98938.38
2023-05-02T00:14:03.183Z,98933.59
2023-05-02T00:19:04.945Z,98928.81
2023-05-02T00:24:06.868Z,98933.69
2023-05-02T00:29:08.724Z,98933.22
2023-05-02T00:34:10.549Z,98926.94
2023-05-02T00:39:12.297Z,98936.22
2023-05-02T00:44:14.116Z,98941.97
2023-05-02T00:49:15.852Z,98941.97
2023-05-02T00:54:17.679Z,98954.53
2023-05-02T00:59:20.213Z,98950.94
2023-05-02T01:04:40.002Z,98954.91
2023-05-02T01:10:07.572Z,98953.47
2023-05-02T01:15:15.026Z,98952.53
2023-05-02T01:20:21.029Z,98950.25
2023-05-02T01:25:37.877Z,98957.22
2023-05-02T01:30:43.587Z,98954.28
2023-05-02T01:35:49.792Z,98960.09
2023-05-02T01:40:52.974Z,98962.00
2023-05-02T01:45:57.337Z,98957.41
2023-05-02T01:51:00.132Z,98954.94
2023-05-02T01:56:03.124Z,98963.25
2023-05-02T02:01:05.915Z,98967.22
2023-05-02T02:06:09.234Z,98961.31
2023-05-02T02:11:17.133Z,98954.59
2023-05-02T02:16:24.643Z,98958.13
2023-05-02T02:21:31.014Z,98966.63
2023-05-02T02:26:33.230Z,98961.84
2023-05-02T02:31:36.175Z,98958.38
2023-05-02T02:36:46.642Z,98955.72
2023-05-02T02:41:54.293Z,98977.47
2023-05-02T02:47:14.008Z,98979.50
2023-05-02T02:52:36.976Z,98975.84
2023-05-02T02:57:55.529Z,98979.50
2023-05-02T03:02:57.745Z,98989.91
2023-05-02T03:08:01.076Z,98993.91
2023-05-02T03:13:03.010Z,99001.19
2023-05-02T03:18:04.847Z,99001.09
2023-05-02T03:23:07.114Z,99002.41
2023-05-02T03:28:08.877Z,99005.38
2023-05-02T03:33:11.151Z,99016.09
2023-05-02T03:38:16.148Z,99011.28
2023-05-02T03:43:20.616Z,99010.88
2023-05-02T03:48:23.121Z,99013.44
2023-05-02T03:53:25.060Z,99021.75
2023-05-02T03:58:31.853Z,99033.09
2023-05-02T04:03:33.710Z,99033.69
2023-05-02T04:08:37.198Z,99032.94
2023-05-02T04:13:39.173Z,99047.00
2023-05-02T04:18:41.265Z,99049.97
2023-05-02T04:23:44.217Z,99061.41
2023-05-02T04:28:46.022Z,99075.75
2023-05-02T04:33:50.266Z,99065.50
2023-05-02T04:38:56.220Z,99075.22
2023-05-02T04:43:58.678Z,99079.91
2023-05-02T04:49:00.859Z,99076.44
2023-05-02T04:54:02.653Z,99090.13
2023-05-02T04:59:05.174Z,99087.66
2023-05-02T05:04:08.426Z,99095.94
2023-05-02T05:09:10.428Z,99087.59
2023-05-02T05:14:14.489Z,99094.97
2023-05-02T05:19:19.866Z,99095.69
2023-05-02T05:24:21.771Z,99096.31
2023-05-02T05:29:25.487Z,99097.28
2023-05-02T05:34:27.428Z,99099.66
2023-05-02T05:39:32.895Z,99098.19
2023-05-02T05:44:36.916Z,99103.38
2023-05-02T05:49:39.022Z,99100.00
2023-05-02T05:54:43.705Z,99109.97
2023-05-02T05:59:45.787Z,99121.88
2023-05-02T06:04:49.320Z,99107.91
2023-05-02T06:09:57.378Z,99120.75
2023-05-02T06:14:59.407Z,99125.03
2023-05-02T06:20:01.998Z,99125.81
2023-05-02T06:25:05.417Z,99135.34
2023-05-02T06:30:07.856Z,99142.00
2023-05-02T06:35:11.620Z,99142.69
2023-05-02T06:40:13.888Z,99142.47
2023-05-02T06:45:15.830Z,99146.75
2023-05-02T06:50:17.801Z,99149.38
2023-05-02T06:55:19.544Z,99147.69
2023-05-02T07:00:22.482Z,99155.69
2023-05-02T07:05:24.196Z,99166.47
2023-05-02T07:10:25.997Z,99169.66
2023-05-02T07:15:30.763Z,99172.38
2023-05-02T07:20:32.618Z,99178.72
2023-05-02T07:25:34.585Z,99179.50
2023-05-02T07:30:36.355Z,99189.59
2023-05-02T07:35:38.072Z,99197.13
2023-05-02T07:40:40.055Z,99209.28
2023-05-02T07:45:41.878Z,99204.88
2023-05-02T07:50:43.983Z,99208.16
2023-05-02T07:55:46.131Z,99203.88
2023-05-02T08:00:48.226Z,99204.91
2023-05-02T08:05:50.017Z,99206.78
2023-05-02T08:10:51.814Z,99207.56
2023-05-02T08:15:59.265Z,99204.66
2023-05-02T08:21:01.640Z,99205.91
2023-05-02T08:26:04.077Z,99200.56
2023-05-02T08:31:05.971Z,99215.00
2023-05-02T08:36:15.795Z,99213.88
2023-05-02T08:41:19.460Z,99215.69
2023-05-02T08:46:23.673Z,99215.75
2023-05-02T08:51:28.389Z,99217.13
2023-05-02T08:56:30.356Z,99223.44
2023-05-02T09:01:33.490Z,99230.69
2023-05-02T09:06:36.489Z,99231.94
2023-05-02T09:11:38.959Z,99243.66
2023-05-02T09:16:40.889Z,99232.66
2023-05-02T09:21:43.403Z,99243.31
2023-05-02T09:27:05.449Z,99258.81
2023-05-02T09:32:07.414Z,99250.16
2023-05-02T09:37:10.384Z,99257.88
2023-05-02T09:42:12.205Z,99256.56
2023-05-02T09:47:26.555Z,99266.38
2023-05-02T09:52:28.327Z,99265.16
2023-05-02T09:57:40.791Z,99277.06
2023-05-02T10:02:43.300Z,99273.91
2023-05-02T10:07:46.642Z,99274.78
2023-05-02T10:12:52.838Z,99275.47
2023-05-02T10:17:58.128Z,99284.59
2023-05-02T10:23:02.078Z,99277.50
2023-05-02T10:28:04.471Z,99270.50
2023-05-02T10:33:06.389Z,99276.25
2023-05-02T10:38:08.257Z,99278.09
2023-05-02T10:43:15.704Z,99276.34
2023-05-02T10:48:25.217Z,99274.47
2023-05-02T10:53:37.401Z,99275.50
2023-05-02T10:58:39.318Z,99287.94
2023-05-02T11:03:58.022Z,99274.28
2023-05-02T11:09:18.679Z,99283.28
2023-05-02T11:14:44.804Z,99285.50
2023-05-02T11:19:46.540Z,99276.19
2023-05-02T11:24:49.668Z,99272.78
2023-05-02T11:29:52.790Z,99274.56
2023-05-02T11:34:56.030Z,99281.72
2023-05-02T11:40:11.021Z,99281.25
2023-05-02T11:45:13.030Z,99273.19
2023-05-02T11:50:15.740Z,99276.94
2023-05-02T11:55:17.849Z,99267.88
2023-05-02T12:00:19.700Z,99275.59
2023-05-02T12:05:31.676Z,99279.28
2023-05-02T12:10:37.934Z,99271.06
2023-05-02T12:15:40.230Z,99278.41
2023-05-02T12:20:43.416Z,99282.41
2023-05-02T12:25:45.241Z,99284.28
2023-05-02T12:30:49.988Z,99274.63
2023-05-02T12:35:52.906Z,99276.78
2023-05-02T12:40:57.825Z,99294.09
2023-05-02T12:46:12.188Z,99299.34
2023-05-02T12:51:33.073Z,99302.31
2023-05-02T12:56:43.619Z,99302.34
2023-05-02T13:01:46.736Z,99308.16
2023-05-02T13:06:48.541Z,99307.22
2023-05-02T13:11:54.168Z,99305.53
2023-05-02T13:16:56.166Z,99314.88
2023-05-02T13:21:57.990Z,99318.72
2023-05-02T13:26:59.704Z,99309.81
2023-05-02T13:32:01.427Z,99314.63
2023-05-02T13:37:03.345Z,99310.81
2023-05-02T13:42:06.433Z,99316.53
2023-05-02T13:47:08.312Z,99326.72
2023-05-02T13:52:10.395Z,99333.63
2023-05-02T13:57:12.354Z,99329.22
2023-05-02T14:02:14.124Z,99332.00
2023-05-02T14:07:15.849Z,99326.41
2023-05-02T14:12:17.562Z,99321.66
2023-05-02T14:17:19.330Z,99322.34
2023-05-02T14:22:21.133Z,99324.81
2023-05-02T14:27:23.103Z,99323.66
2023-05-02T14:32:24.910Z,99320.75
2023-05-02T14:37:26.722Z,99319.66
2023-05-02T14:42:28.510Z,99309.94
2023-05-02T14:47:31.272Z,99312.84
2023-05-02T14:52:33.304Z,99316.91
2023-05-02T14:57:35.213Z,99318.97
2023-05-02T15:02:37.035Z,99308.72
2023-05-02T15:07:39.119Z,99311.63
2023-05-02T15:12:40.946Z,99310.44
2023-05-02T15:17:42.786Z,99314.16
2023-05-02T15:22:44.637Z,99315.13
2023-05-02T15:27:46.527Z,99312.41
2023-05-02T15:32:48.357Z,99311.22
2023-05-02T15:37:50.187Z,99316.38
2023-05-02T15:42:51.968Z,99311.34
2023-05-02T15:47:53.727Z,99314.81
2023-05-02T15:52:55.752Z,99321.06
2023-05-02T15:57:57.527Z,99315.53
2023-05-02T16:02:59.511Z,99312.34
2023-05-02T16:08:01.961Z,99323.97
2023-05-02T16:13:03.751Z,99335.13
2023-05-02T16:18:05.664Z,99338.00
2023-05-02T16:23:07.582Z,99350.41
2023-05-02T16:28:09.518Z,99344.72
2023-05-02T16:33:11.480Z,99347.59
2023-05-02T16:38:13.352Z,99357.75
2023-05-02T16:43:15.232Z,99362.88
2023-05-02T16:48:16.959Z,99361.28
2023-05-02T16:53:18.696Z,99359.00
2023-05-02T16:58:20.626Z,99359.81
2023-05-02T17:03:22.441Z,99364.88
2023-05-02T17:08:24.320Z,99361.25
2023-05-02T17:13:26.269Z,99377.75
2023-05-02T17:18:28.074Z,99384.94
2023-05-02T17:23:30.395Z,99385.56
2023-05-02T17:28:32.400Z,99389.66
2023-05-02T17:33:34.151Z,99397.13
2023-05-02T17:38:35.935Z,99400.13
2023-05-02T17:43:38.131Z,99411.03
2023-05-02T17:48:43.108Z,99402.09
2023-05-02T17:53:44.883Z,99410.19
2023-05-02T17:58:47.276Z,99415.72
2023-05-02T18:03:50.014Z,99429.34
2023-05-02T18:08:52.074Z,99422.03
2023-05-02T18:13:53.868Z,99434.38
2023-05-02T18:18:55.653Z,99429.28
2023-05-02T18:23:57.405Z,99443.59
2023-05-02T18:28:59.145Z,99445.94
2023-05-02T18:34:00.868Z,99454.91
2023-05-02T18:39:02.604Z,99465.16
2023-05-02T18:44:06.864Z,99471.63
2023-05-02T18:49:09.271Z,99474.63
2023-05-02T18:54:11.025Z,99479.03
2023-05-02T18:59:12.963Z,99489.63
2023-05-02T19:04:14.732Z,99490.34
2023-05-02T19:09:18.259Z,99499.88
2023-05-02T19:14:20.317Z,99502.44
2023-05-02T19:19:25.144Z,99508.63
2023-05-02T19:24:26.975Z,99521.09
2023-05-02T19:29:28.835Z,99532.47
2023-05-02T19:34:34.051Z,99531.66
2023-05-02T19:39:35.899Z,99539.44
2023-05-02T19:44:38.649Z,99538.94
2023-05-02T19:49:40.966Z,99545.88
2023-05-02T19:54:42.727Z,99544.31
2023-05-02T19:59:47.319Z,99542.16
2023-05-02T20:04:49.142Z,99536.09
2023-05-02T20:09:50.904Z,99553.59
2023-05-02T20:14:52.735Z,99549.81
2023-05-02T20:19:54.545Z,99555.63
2023-05-02T20:24:56.635Z,99552.06
2023-05-02T20:29:58.604Z,99550.72
2023-05-02T20:35:03.127Z,99554.63
2023-05-02T20:40:06.487Z,99550.19
2023-05-02T20:45:09.187Z,99558.38
2023-05-02T20:50:11.129Z,99560.00
2023-05-02T20:55:12.983Z,99558.38
2023-05-02T21:00:15.730Z,99560.53
2023-05-02T21:05:17.597Z,99561.38
2023-05-02T21:10:21.399Z,99559.69
2023-05-02T21:15:32.377Z,99558.88
2023-05-02T21:20:38.195Z,99564.41
2023-05-02T21:25:40.265Z,99560.00
2023-05-02T21:30:42.164Z,99560.59
2023-05-02T21:35:47.148Z,99570.84
2023-05-02T21:40:51.263Z,99575.06
2023-05-02T21:45:53.055Z,99566.75
2023-05-02T21:50:55.152Z,99571.16
2023-05-02T21:55:56.841Z,99574.25
2023-05-02T22:01:00.075Z,99567.88
2023-05-02T22:06:06.054Z,99568.97
2023-05-02T22:11:10.638Z,99572.88
2023-05-02T22:16:12.447Z,99571.47
2023-05-02T22:21:15.425Z,99580.34
2023-05-02T22:26:24.282Z,99591.97
2023-05-02T22:31:27.279Z,99580.91
2023-05-02T22:36:31.532Z,99573.50
2023-05-02T22:41:33.388Z,99583.44
2023-05-02T22:46:38.309Z,99576.53
2023-05-02T22:51:41.596Z,99579.94
2023-05-02T22:56:43.591Z,99580.50
2023-05-02T23:01:46.000Z,99571.19
2023-05-02T23:06:48.093Z,99566.56
2023-05-02T23:11:49.947Z,99566.84
2023-05-02T23:16:53.816Z,99560.81
2023-05-02T23:21:55.712Z,99567.47
2023-05-02T23:26:57.478Z,99567.53
2023-05-02T23:31:59.411Z,99562.31
2023-05-02T23:37:01.405Z,99559.63
2023-05-02T23:42:03.875Z,99558.28
2023-05-02T23:47:06.807Z,99561.34
2023-05-02T23:52:08.840Z,99555.34
2023-05-02T23:57:10.641Z,99552.88
